Time;durP1;ratioP1;P1;durP2;ratioP2;P2;SDS_P1;SDS_P2;PMS_P1;PMS_P2;Temp;Humidity;BMP_temperature;BMP_pressure;BME280_temperature;BME280_humidity;BME280_pressure;Samples;Min_cycle;Max_cycle;Signal;HPM_P1;HPM_P2
2022/07/13 00:00:32;;;;;;;36.38;20.30;;;25.40;99.90;;;;;;1910742;75;21227;-79
2022/07/13 00:03:04;;;;;;;46.20;27.27;;;25.50;99.90;;;;;;1909829;73;21178;-79
2022/07/13 00:05:35;;;;;;;36.50;20.25;;;25.50;99.90;;;;;;1904270;73;21124;-79
2022/07/13 00:08:06;;;;;;;29.18;16.93;;;25.50;99.90;;;;;;1910976;75;21265;-80
2022/07/13 00:10:37;;;;;;;23.62;12.50;;;25.50;99.90;;;;;;1911109;75;21096;-79
2022/07/13 00:13:09;;;;;;;26.70;15.25;;;25.50;99.90;;;;;;1893670;73;21159;-79
2022/07/13 00:15:40;;;;;;;38.40;18.25;;;25.50;99.90;;;;;;1896270;75;21234;-78
2022/07/13 00:18:11;;;;;;;29.85;16.80;;;25.60;99.90;;;;;;1910850;75;21116;-80
2022/07/13 00:20:42;;;;;;;19.92;13.13;;;25.50;99.90;;;;;;1911082;75;21591;-80
2022/07/13 00:23:13;;;;;;;16.07;9.60;;;25.50;99.90;;;;;;1909578;73;21084;-79
2022/07/13 00:25:44;;;;;;;11.15;7.42;;;25.50;99.90;;;;;;1910685;75;21447;-79
2022/07/13 00:28:15;;;;;;;14.73;8.70;;;25.50;99.90;;;;;;1891988;75;21159;-79
2022/07/13 00:30:46;;;;;;;14.65;9.30;;;25.50;99.90;;;;;;1910973;75;21525;-78
2022/07/13 00:33:17;;;;;;;12.23;8.33;;;25.60;99.90;;;;;;1910347;73;22414;-79
2022/07/13 00:35:48;;;;;;;14.13;8.80;;;25.50;99.90;;;;;;1910702;75;21156;-79
2022/07/13 00:38:19;;;;;;;10.40;7.83;;;25.50;99.90;;;;;;1910511;75;21190;-78
2022/07/13 00:40:50;;;;;;;11.63;8.23;;;25.50;99.90;;;;;;1909294;73;21201;-79
2022/07/13 00:43:21;;;;;;;10.78;7.78;;;25.50;99.90;;;;;;1889022;74;21213;-80
2022/07/13 00:45:53;;;;;;;10.58;8.50;;;25.50;99.90;;;;;;1886854;75;21141;-79
2022/07/13 00:48:24;;;;;;;9.63;7.08;;;25.50;99.90;;;;;;1888415;76;21156;-79
2022/07/13 00:50:56;;;;;;;9.75;7.03;;;25.40;99.90;;;;;;1893646;76;21143;-79
2022/07/13 00:53:27;;;;;;;7.62;5.78;;;25.40;99.90;;;;;;1891928;74;21634;-79
2022/07/13 00:55:59;;;;;;;9.23;4.53;;;25.40;99.90;;;;;;1890416;74;21218;-80
2022/07/13 00:58:30;;;;;;;7.17;4.75;;;25.40;99.90;;;;;;1891085;74;21123;-79
2022/07/13 01:01:01;;;;;;;7.53;5.40;;;25.40;99.90;;;;;;1889624;76;21158;-79
2022/07/13 01:03:32;;;;;;;6.70;5.10;;;25.50;99.90;;;;;;1890361;76;21592;-79
2022/07/13 01:06:05;;;;;;;5.97;4.30;;;25.50;99.90;;;;;;1890514;74;21586;-79
2022/07/13 01:08:36;;;;;;;9.00;6.30;;;25.40;99.90;;;;;;1894449;75;21194;-80
2022/07/13 01:11:08;;;;;;;6.30;5.00;;;25.50;99.90;;;;;;1891504;75;21131;-80
2022/07/13 01:13:40;;;;;;;6.05;4.03;;;25.40;99.90;;;;;;1883657;74;21123;-79
2022/07/13 01:16:11;;;;;;;7.15;4.05;;;25.50;99.90;;;;;;1891595;75;21197;-78
2022/07/13 01:18:42;;;;;;;7.70;3.95;;;25.40;99.90;;;;;;1889987;75;21130;-79
2022/07/13 01:21:14;;;;;;;4.30;2.67;;;25.40;99.90;;;;;;1892327;76;21698;-79
2022/07/13 01:23:45;;;;;;;5.87;3.30;;;25.30;99.90;;;;;;1893400;74;21151;-78
2022/07/13 01:26:16;;;;;;;4.62;3.20;;;25.40;99.90;;;;;;1893386;75;22530;-79
2022/07/13 01:28:47;;;;;;;4.53;2.77;;;25.30;99.90;;;;;;1893587;75;21172;-79
2022/07/13 01:31:21;;;;;;;4.85;3.02;;;25.30;99.90;;;;;;1893151;75;21068;-79
2022/07/13 01:33:52;;;;;;;4.22;3.10;;;25.40;99.90;;;;;;1852355;76;21109;-78
2022/07/13 01:36:23;;;;;;;3.02;2.60;;;25.30;99.90;;;;;;1854543;76;21588;-78
2022/07/13 01:38:54;;;;;;;3.80;2.05;;;25.40;99.90;;;;;;1841889;78;21166;-80
2022/07/13 01:41:27;;;;;;;2.35;1.62;;;25.40;99.90;;;;;;1847267;76;21182;-79
2022/07/13 01:43:59;;;;;;;2.77;1.70;;;25.40;99.90;;;;;;1795621;79;21614;-79
2022/07/13 01:46:30;;;;;;;2.95;2.00;;;25.40;99.90;;;;;;1874556;75;21171;-80
2022/07/13 01:49:01;;;;;;;4.40;2.27;;;25.40;99.90;;;;;;1824650;77;21785;-79
2022/07/13 01:51:32;;;;;;;4.17;2.70;;;25.40;99.90;;;;;;1821230;78;21674;-78
2022/07/13 01:54:03;;;;;;;4.12;2.83;;;25.40;99.90;;;;;;1782004;80;21252;-77
2022/07/13 01:56:34;;;;;;;5.10;2.47;;;25.40;99.90;;;;;;1869243;76;21131;-80
2022/07/13 01:59:05;;;;;;;3.02;2.27;;;25.40;99.90;;;;;;1873437;75;21595;-78
2022/07/13 02:01:36;;;;;;;3.62;2.00;;;25.50;99.90;;;;;;1860928;76;21225;-79
2022/07/13 02:04:07;;;;;;;3.30;2.27;;;25.50;99.90;;;;;;1862901;75;21419;-79
2022/07/13 02:06:39;;;;;;;3.92;2.35;;;25.60;99.90;;;;;;1830365;77;21088;-80
2022/07/13 02:09:11;;;;;;;4.37;2.10;;;25.60;99.90;;;;;;1789678;78;21135;-80
2022/07/13 02:11:42;;;;;;;4.00;2.25;;;25.60;99.90;;;;;;1793666;78;21615;-80
2022/07/13 02:14:13;;;;;;;2.85;1.82;;;25.70;99.90;;;;;;1795870;78;21216;-79
2022/07/13 02:17:01;;;;;;;4.00;2.33;;;25.70;99.90;;;;;;1872664;76;21135;-78
2022/07/13 02:19:30;;;;;;;5.03;2.17;;;25.70;99.90;;;;;;1855628;75;21088;-79
2022/07/13 02:22:01;;;;;;;5.50;2.52;;;25.70;99.90;;;;;;1860438;76;21181;-78
2022/07/13 02:24:33;;;;;;;3.85;2.72;;;25.90;99.90;;;;;;1857788;76;21634;-78
2022/07/13 02:27:04;;;;;;;4.25;2.22;;;25.90;99.90;;;;;;1865465;76;21172;-80
2022/07/13 02:29:35;;;;;;;3.40;2.27;;;26.00;99.90;;;;;;1822173;77;21172;-78
2022/07/13 02:32:07;;;;;;;4.37;2.58;;;26.10;99.90;;;;;;1823682;77;21143;-79
2022/07/13 02:34:38;;;;;;;5.12;2.40;;;26.20;99.90;;;;;;1821135;78;21564;-79
2022/07/13 02:37:11;;;;;;;3.95;2.70;;;26.30;99.90;;;;;;1811499;78;21212;-80
2022/07/13 02:39:41;;;;;;;4.20;2.15;;;26.40;99.90;;;;;;1873304;74;21177;-79
2022/07/13 02:42:12;;;;;;;18.02;14.10;;;26.50;99.90;;;;;;1892366;73;21519;-79
2022/07/13 02:44:43;;;;;;;2.85;2.12;;;26.50;99.90;;;;;;1902659;74;21110;-79
2022/07/13 02:47:14;;;;;;;4.22;3.02;;;26.60;99.90;;;;;;1898923;75;21226;-79
2022/07/13 02:49:45;;;;;;;6.12;4.40;;;26.60;99.90;;;;;;1904196;73;21119;-78
2022/07/13 02:52:17;;;;;;;3.35;2.17;;;26.60;99.90;;;;;;1902314;73;21184;-79
2022/07/13 02:54:48;;;;;;;3.77;2.05;;;26.70;99.90;;;;;;1897552;73;21157;-79
2022/07/13 02:57:19;;;;;;;3.22;2.25;;;26.70;99.90;;;;;;1904077;73;21541;-80
2022/07/13 02:59:50;;;;;;;3.50;2.45;;;26.70;99.90;;;;;;1906636;73;21187;-79
2022/07/13 03:02:21;;;;;;;5.70;2.00;;;26.80;99.90;;;;;;1887374;75;21194;-80
2022/07/13 03:04:52;;;;;;;2.10;1.67;;;26.80;99.90;;;;;;1906269;73;21159;-78
2022/07/13 03:07:23;;;;;;;2.30;1.65;;;26.80;99.90;;;;;;1900277;74;21151;-79
2022/07/13 03:09:54;;;;;;;2.17;1.67;;;26.90;99.90;;;;;;1910016;73;21185;-79
2022/07/13 03:12:26;;;;;;;2.60;1.50;;;26.90;99.90;;;;;;1911224;75;21072;-79
2022/07/13 03:14:57;;;;;;;2.55;1.65;;;27.00;99.90;;;;;;1910912;75;21139;-81
2022/07/13 03:17:28;;;;;;;3.60;1.37;;;27.10;99.90;;;;;;1890452;74;21193;-79
2022/07/13 03:19:59;;;;;;;5.25;1.42;;;27.20;99.90;;;;;;1884311;73;21127;-82
2022/07/13 03:22:30;;;;;;;2.50;1.55;;;27.20;99.90;;;;;;1885056;75;21080;-81
2022/07/13 03:25:01;;;;;;;3.62;2.00;;;27.20;99.90;;;;;;1910961;73;21215;-80
2022/07/13 03:27:32;;;;;;;4.10;1.55;;;27.30;99.90;;;;;;1910525;74;21048;-81
2022/07/13 03:30:04;;;;;;;3.70;1.55;;;27.30;99.90;;;;;;1909944;73;21633;-79
2022/07/13 03:32:35;;;;;;;2.52;1.27;;;27.40;99.90;;;;;;1882268;75;21170;-80
2022/07/13 03:35:06;;;;;;;2.95;1.40;;;27.40;99.90;;;;;;1899512;73;21606;-80
2022/07/13 03:37:37;;;;;;;3.33;1.57;;;27.40;99.90;;;;;;1911181;75;21209;-80
2022/07/13 03:40:09;;;;;;;4.25;1.50;;;27.50;99.90;;;;;;1885656;74;21084;-81
2022/07/13 03:42:40;;;;;;;2.47;0.80;;;27.60;99.90;;;;;;1917584;74;21263;-78
2022/07/13 03:45:11;;;;;;;3.00;1.40;;;27.70;99.90;;;;;;1908454;74;21107;-79
2022/07/13 03:47:42;;;;;;;3.75;1.47;;;27.80;99.90;;;;;;1918426;73;21151;-78
2022/07/13 03:50:13;;;;;;;2.77;1.07;;;27.90;99.90;;;;;;1924671;74;21236;-80
2022/07/13 03:52:45;;;;;;;1.98;1.22;;;28.00;99.90;;;;;;1908782;73;21158;-80
2022/07/13 03:55:17;;;;;;;2.00;1.17;;;28.00;99.90;;;;;;1924538;73;21142;-77
2022/07/13 03:57:48;;;;;;;3.17;1.27;;;28.10;99.90;;;;;;1916894;73;21213;-79
2022/07/13 04:00:19;;;;;;;4.70;1.20;;;28.20;99.90;;;;;;1917479;73;21152;-80
2022/07/13 04:02:50;;;;;;;2.95;1.10;;;28.20;99.90;;;;;;1920819;73;21088;-80
2022/07/13 04:05:22;;;;;;;2.98;1.30;;;28.30;99.90;;;;;;1922637;74;21075;-81
2022/07/13 04:07:53;;;;;;;4.25;1.00;;;28.40;99.90;;;;;;1914963;74;21134;-79
2022/07/13 04:10:24;;;;;;;1.75;0.90;;;28.50;99.90;;;;;;1903225;74;21075;-80
2022/07/13 04:12:55;;;;;;;4.37;1.27;;;28.50;99.90;;;;;;1906567;73;21131;-80
2022/07/13 04:15:28;;;;;;;3.25;1.00;;;28.50;99.90;;;;;;1924246;74;21155;-80
2022/07/13 04:17:59;;;;;;;3.70;1.00;;;28.50;99.90;;;;;;1924916;74;21115;-80
2022/07/13 04:20:30;;;;;;;5.30;1.60;;;28.40;99.90;;;;;;1906917;74;21156;-81
2022/07/13 04:23:01;;;;;;;5.78;1.55;;;28.30;99.90;;;;;;1906665;74;21537;-81
2022/07/13 04:25:32;;;;;;;2.77;1.00;;;28.30;99.90;;;;;;1887216;76;21089;-80
2022/07/13 04:28:03;;;;;;;1.27;0.80;;;28.30;99.90;;;;;;1837960;78;21169;-81
2022/07/13 04:30:35;;;;;;;2.87;1.02;;;28.30;99.90;;;;;;1877003;76;21174;-80
2022/07/13 04:33:05;;;;;;;2.83;1.60;;;28.20;99.90;;;;;;1850948;76;21196;-79
2022/07/13 04:35:36;;;;;;;2.52;1.15;;;28.20;99.90;;;;;;1870958;76;21228;-80
2022/07/13 04:38:07;;;;;;;1.50;0.85;;;28.30;99.90;;;;;;1839684;76;21134;-82
2022/07/13 04:40:39;;;;;;;2.22;0.82;;;28.40;99.90;;;;;;1878928;76;21148;-81
2022/07/13 04:43:09;;;;;;;2.87;0.90;;;28.60;99.90;;;;;;1869415;76;21192;-81
2022/07/13 04:45:40;;;;;;;1.20;0.78;;;28.80;99.90;;;;;;1911454;75;21152;-81
2022/07/13 04:48:11;;;;;;;2.35;1.15;;;29.10;99.90;;;;;;1905479;75;21111;-83
2022/07/13 04:50:42;;;;;;;3.08;0.95;;;29.20;99.90;;;;;;1910535;74;21192;-82
2022/07/13 04:53:13;;;;;;;1.92;1.00;;;29.30;99.90;;;;;;1912126;75;21107;-82
2022/07/13 04:55:45;;;;;;;2.52;0.90;;;29.30;99.90;;;;;;1911879;75;21150;-81
2022/07/13 04:58:15;;;;;;;1.85;1.00;;;29.30;99.90;;;;;;1913644;75;21076;-79
2022/07/13 05:00:47;;;;;;;1.80;0.93;;;29.20;99.90;;;;;;1911242;74;21503;-83
2022/07/13 05:03:19;;;;;;;1.95;1.00;;;29.20;99.90;;;;;;1866755;75;21220;-83
2022/07/13 05:05:51;;;;;;;3.72;1.30;;;29.10;99.90;;;;;;1871859;76;21618;-82
2022/07/13 05:08:23;;;;;;;2.80;1.27;;;29.10;99.90;;;;;;1871699;76;21599;-82
2022/07/13 05:10:54;;;;;;;3.95;1.70;;;29.00;99.90;;;;;;1889015;75;22069;-81
2022/07/13 05:13:26;;;;;;;9.48;2.60;;;28.80;99.90;;;;;;1902620;75;21174;-82
2022/07/13 05:15:58;;;;;;;3.87;2.35;;;28.70;99.90;;;;;;1899504;75;21072;-80
2022/07/13 05:18:29;;;;;;;2.27;1.47;;;28.60;99.90;;;;;;1906238;75;21060;-80
2022/07/13 05:21:00;;;;;;;5.85;1.82;;;28.30;99.90;;;;;;1892255;75;21101;-80
2022/07/13 05:23:31;;;;;;;3.33;1.65;;;28.10;99.90;;;;;;1911895;75;21595;-81
2022/07/13 05:26:04;;;;;;;3.58;1.50;;;27.90;99.90;;;;;;1902195;75;21095;-80
2022/07/13 05:28:34;;;;;;;3.92;1.75;;;27.70;99.90;;;;;;1888656;74;21072;-80
2022/07/13 05:31:05;;;;;;;9.30;2.35;;;27.50;99.90;;;;;;1911404;75;21163;-80
2022/07/13 05:33:36;;;;;;;3.42;1.60;;;27.50;99.90;;;;;;1911578;75;21571;-81
2022/07/13 05:36:09;;;;;;;4.70;1.65;;;27.40;99.90;;;;;;1905339;75;21561;-80
2022/07/13 05:38:39;;;;;;;3.55;1.45;;;27.30;99.90;;;;;;1910173;74;21123;-80
2022/07/13 05:41:10;;;;;;;4.37;1.30;;;27.30;99.90;;;;;;1911274;74;21646;-80
2022/07/13 05:43:41;;;;;;;6.47;3.10;;;27.20;99.90;;;;;;1914132;75;21202;-80
2022/07/13 05:46:13;;;;;;;5.37;1.45;;;27.20;99.90;;;;;;1921182;75;21232;-79
2022/07/13 05:48:44;;;;;;;3.87;1.60;;;27.10;99.90;;;;;;1919778;74;21683;-80
2022/07/13 05:51:15;;;;;;;3.47;1.65;;;27.10;99.90;;;;;;1915508;74;21079;-80
2022/07/13 05:53:47;;;;;;;2.27;1.42;;;27.10;99.90;;;;;;1900737;74;21188;-80
2022/07/13 05:56:18;;;;;;;2.55;1.77;;;27.10;99.90;;;;;;1912471;75;21103;-80
2022/07/13 05:58:49;;;;;;;3.25;1.95;;;27.10;99.90;;;;;;1920887;74;21164;-81
2022/07/13 06:01:21;;;;;;;4.42;2.10;;;27.10;99.90;;;;;;1922199;75;21131;-80
2022/07/13 06:03:51;;;;;;;3.12;1.47;;;27.10;99.90;;;;;;1904777;74;21111;-81
2022/07/13 06:06:23;;;;;;;5.30;2.40;;;27.10;99.90;;;;;;1899155;74;21118;-80
2022/07/13 06:08:54;;;;;;;8.93;3.42;;;27.10;99.90;;;;;;1887472;74;21091;-81
2022/07/13 06:11:25;;;;;;;2.80;1.75;;;27.10;99.90;;;;;;1910079;74;21134;-81
2022/07/13 06:13:55;;;;;;;4.92;2.22;;;27.20;99.90;;;;;;1907457;74;21224;-80
2022/07/13 06:16:31;;;;;;;3.83;1.72;;;27.10;99.90;;;;;;1920527;73;21056;-81
2022/07/13 06:19:02;;;;;;;3.22;2.20;;;27.10;99.90;;;;;;1920522;74;21099;-81
2022/07/13 06:21:37;;;;;;;5.00;2.47;;;27.20;99.90;;;;;;1920567;75;21181;-81
2022/07/13 06:24:08;;;;;;;5.72;1.90;;;27.20;99.90;;;;;;1919061;74;21048;-80
2022/07/13 06:26:39;;;;;;;3.92;2.00;;;27.20;99.90;;;;;;1888897;74;21178;-80
2022/07/13 06:29:10;;;;;;;3.42;2.30;;;27.30;99.90;;;;;;1893163;74;21166;-81
2022/07/13 06:31:41;;;;;;;3.98;2.22;;;27.30;99.90;;;;;;1913866;74;21078;-80
2022/07/13 06:34:11;;;;;;;1.75;1.20;;;27.40;99.90;;;;;;1920937;75;21137;-80
2022/07/13 06:36:43;;;;;;;1.42;0.90;;;27.40;99.90;;;;;;1915625;75;21768;-81
2022/07/13 06:39:14;;;;;;;3.22;2.17;;;27.40;99.90;;;;;;1919224;74;21613;-81
2022/07/13 06:41:45;;;;;;;2.62;1.30;;;27.50;99.90;;;;;;1860710;77;21610;-81
2022/07/13 06:44:17;;;;;;;1.92;1.20;;;27.60;99.90;;;;;;1897264;74;21138;-81
2022/07/13 06:46:48;;;;;;;2.75;1.37;;;27.60;99.90;;;;;;1886858;75;21086;-80
2022/07/13 06:49:19;;;;;;;2.45;1.45;;;27.70;99.90;;;;;;1885980;76;21135;-80
2022/07/13 06:51:51;;;;;;;1.75;0.90;;;27.70;99.90;;;;;;1881780;76;21126;-81
2022/07/13 06:54:22;;;;;;;1.77;0.90;;;27.70;99.90;;;;;;1881049;76;21242;-80
2022/07/13 06:56:53;;;;;;;3.42;0.82;;;27.80;99.90;;;;;;1886150;75;21110;-80
2022/07/13 06:59:24;;;;;;;4.35;2.50;;;27.80;99.90;;;;;;1886062;75;21128;-81
2022/07/13 07:01:55;;;;;;;10.03;7.60;;;27.80;99.90;;;;;;1887053;76;21110;-81
2022/07/13 07:04:27;;;;;;;4.85;1.65;;;27.80;99.90;;;;;;1891317;75;21075;-80
2022/07/13 07:06:58;;;;;;;7.80;4.62;;;27.90;99.90;;;;;;1885301;76;21080;-83
2022/07/13 07:09:29;;;;;;;12.68;9.53;;;28.00;99.90;;;;;;1882693;76;21182;-81
2022/07/13 07:12:00;;;;;;;6.10;3.20;;;28.10;99.90;;;;;;1888522;76;21111;-81
2022/07/13 07:14:32;;;;;;;2.35;1.40;;;28.30;99.90;;;;;;1889838;76;21080;-81
2022/07/13 07:17:04;;;;;;;4.40;1.25;;;28.40;99.90;;;;;;1897312;75;21125;-81
2022/07/13 07:19:35;;;;;;;3.58;1.40;;;28.50;99.90;;;;;;1885829;76;21128;-82
2022/07/13 07:22:06;;;;;;;2.05;1.07;;;28.50;99.90;;;;;;1882789;75;21637;-82
2022/07/13 07:24:41;;;;;;;6.55;1.98;;;28.50;99.90;;;;;;1885093;76;21122;-81
2022/07/13 07:27:12;;;;;;;4.33;2.52;;;28.50;99.90;;;;;;1885861;73;21055;-82
2022/07/13 07:29:43;;;;;;;2.85;1.45;;;28.50;99.90;;;;;;1889702;75;21092;-81
2022/07/13 07:32:14;;;;;;;4.28;2.40;;;28.50;99.90;;;;;;1894822;75;21131;-82
2022/07/13 07:34:49;;;;;;;4.40;1.55;;;28.40;99.90;;;;;;1888836;75;21519;-80
2022/07/13 07:37:22;;;;;;;3.95;1.98;;;28.40;99.90;;;;;;1884101;76;21106;-82
2022/07/13 07:39:54;;;;;;;3.22;1.70;;;28.40;99.90;;;;;;1881265;75;21174;-80
2022/07/13 07:42:29;;;;;;;4.42;2.25;;;28.30;99.90;;;;;;1875408;76;21082;-80
2022/07/13 07:45:01;;;;;;;2.92;1.90;;;28.30;99.90;;;;;;1910509;74;21127;-80
2022/07/13 07:47:33;;;;;;;6.33;3.62;;;28.30;99.90;;;;;;1901634;75;21237;-80
2022/07/13 07:50:05;;;;;;;5.62;3.92;;;28.20;99.90;;;;;;1895220;75;21095;-81
2022/07/13 07:52:36;;;;;;;3.45;2.33;;;28.20;99.90;;;;;;1905485;75;21123;-81
2022/07/13 07:55:09;;;;;;;8.60;6.33;;;28.20;99.90;;;;;;1860397;76;21088;-81
2022/07/13 07:57:43;;;;;;;3.05;1.55;;;28.20;99.90;;;;;;1904400;75;21162;-81
2022/07/13 08:00:16;;;;;;;12.53;9.10;;;28.20;99.90;;;;;;1905696;75;21135;-81
2022/07/13 08:02:49;;;;;;;3.77;2.35;;;28.20;99.90;;;;;;1813493;79;21088;-81
2022/07/13 08:05:21;;;;;;;5.67;1.40;;;28.10;99.90;;;;;;1909264;75;21597;-81
2022/07/13 08:07:55;;;;;;;3.67;1.67;;;28.20;99.90;;;;;;1908481;75;21145;-80
2022/07/13 08:10:26;;;;;;;12.35;9.48;;;28.20;99.90;;;;;;1909443;75;21056;-80
2022/07/13 08:13:03;;;;;;;2.50;1.35;;;28.20;99.90;;;;;;1813630;78;22345;-81
2022/07/13 08:15:37;;;;;;;2.72;1.10;;;28.20;99.90;;;;;;1908686;75;21128;-82
2022/07/13 08:18:16;;;;;;;1.32;0.82;;;28.20;99.90;;;;;;1894882;75;21684;-81
2022/07/13 08:20:49;;;;;;;2.17;1.05;;;28.20;99.90;;;;;;1906873;75;21180;-81
2022/07/13 08:25:55;;;;;;;5.45;1.82;;;28.20;99.90;;;;;;1898323;75;21143;-83
2022/07/13 08:28:26;;;;;;;4.10;1.60;;;28.30;99.90;;;;;;1904121;75;21164;-81
2022/07/13 08:31:01;;;;;;;1.40;0.60;;;28.40;99.90;;;;;;1813702;78;21594;-81
2022/07/13 08:38:39;;;;;;;6.12;4.20;;;28.50;99.90;;;;;;1907528;75;21603;-82
2022/07/13 08:41:10;;;;;;;2.02;1.22;;;28.50;99.90;;;;;;1909182;74;21111;-81
2022/07/13 08:43:45;;;;;;;2.85;0.78;;;28.50;99.90;;;;;;1904399;74;21277;-82
2022/07/13 08:46:21;;;;;;;3.08;2.35;;;28.50;99.90;;;;;;1902005;75;21139;-81
2022/07/13 08:48:55;;;;;;;2.58;1.32;;;28.50;99.90;;;;;;1811802;79;21244;-81
2022/07/13 08:51:32;;;;;;;5.17;0.93;;;28.50;99.90;;;;;;1914419;75;21377;-81
2022/07/13 08:54:09;;;;;;;3.27;0.90;;;28.50;99.90;;;;;;1908802;75;21121;-81
2022/07/13 08:56:41;;;;;;;7.28;4.70;;;28.40;99.90;;;;;;1861493;76;21194;-81
2022/07/13 08:59:13;;;;;;;4.70;2.45;;;28.40;99.90;;;;;;1888802;75;21147;-82
2022/07/13 09:01:44;;;;;;;1.55;0.68;;;28.40;99.90;;;;;;1904792;75;21146;-82
2022/07/13 09:04:20;;;;;;;5.58;3.67;;;28.40;99.90;;;;;;1854284;76;21189;-80
2022/07/13 09:06:50;;;;;;;3.72;1.10;;;28.40;99.90;;;;;;1901609;75;21246;-81
2022/07/13 09:09:27;;;;;;;7.03;5.00;;;28.30;99.90;;;;;;1901805;75;21084;-81
2022/07/13 09:12:02;;;;;;;2.35;1.20;;;28.20;99.90;;;;;;1905859;75;21627;-81
2022/07/13 09:14:33;;;;;;;2.72;1.80;;;28.20;99.90;;;;;;1911372;75;21088;-82
2022/07/13 09:17:04;;;;;;;2.80;1.37;;;28.10;99.90;;;;;;1914178;75;21107;-81
2022/07/13 09:19:40;;;;;;;3.70;1.10;;;28.00;99.90;;;;;;1905800;74;21088;-81
2022/07/13 09:22:17;;;;;;;3.67;1.72;;;27.80;99.90;;;;;;1909304;75;21099;-81
2022/07/13 09:24:53;;;;;;;4.03;2.90;;;27.70;99.90;;;;;;1908181;75;21155;-81
2022/07/13 09:27:24;;;;;;;5.15;2.85;;;27.70;99.90;;;;;;1910953;74;21691;-82
2022/07/13 09:29:55;;;;;;;6.30;5.33;;;27.60;99.90;;;;;;1912254;75;21617;-81
2022/07/13 09:32:26;;;;;;;3.47;1.30;;;27.60;99.90;;;;;;1905694;75;21489;-80
2022/07/13 09:35:02;;;;;;;2.90;1.10;;;27.50;99.90;;;;;;1913068;75;21528;-79
2022/07/13 09:37:36;;;;;;;5.97;3.02;;;27.40;99.90;;;;;;1916415;75;21147;-78
2022/07/13 09:40:09;;;;;;;3.37;1.60;;;27.40;99.90;;;;;;1908249;75;21068;-79
2022/07/13 09:42:43;;;;;;;2.87;0.80;;;27.30;99.90;;;;;;1913190;75;21099;-78
2022/07/13 09:47:56;;;;;;;2.00;0.90;;;27.30;99.90;;;;;;1913147;75;21084;-79
2022/07/13 09:50:31;;;;;;;3.62;0.80;;;27.30;99.90;;;;;;1919402;75;21206;-78
2022/07/13 09:53:17;;;;;;;5.17;1.57;;;27.30;99.90;;;;;;1832707;77;21228;-77
2022/07/13 09:56:07;;;;;;;2.50;1.22;;;27.20;99.90;;;;;;1845265;77;21144;-78
2022/07/13 09:58:39;;;;;;;2.52;1.50;;;27.30;99.90;;;;;;1870516;76;21134;-79
2022/07/13 10:01:14;;;;;;;2.80;0.82;;;27.30;99.90;;;;;;1834843;76;21246;-80
2022/07/13 10:03:48;;;;;;;1.70;0.95;;;27.30;99.90;;;;;;1847792;76;21199;-78
2022/07/13 10:06:37;;;;;;;1.75;0.90;;;27.30;99.90;;;;;;1848147;77;21144;-78
2022/07/13 10:09:08;;;;;;;2.87;1.00;;;27.30;99.90;;;;;;1872127;76;21069;-79
2022/07/13 10:11:40;;;;;;;1.67;0.60;;;27.30;99.90;;;;;;1872818;76;21119;-80
2022/07/13 10:14:13;;;;;;;5.53;1.00;;;27.30;99.90;;;;;;1870583;75;21911;-73
2022/07/13 10:16:44;;;;;;;1.87;0.80;;;27.30;99.90;;;;;;1864403;76;21195;-72
2022/07/13 10:19:17;;;;;;;2.62;1.20;;;27.30;99.90;;;;;;1877172;76;21131;-72
2022/07/13 10:21:50;;;;;;;3.47;0.90;;;27.30;99.90;;;;;;1867534;76;21220;-72
2022/07/13 10:24:22;;;;;;;1.95;0.90;;;27.30;99.90;;;;;;1839691;77;21191;-72
2022/07/13 10:26:55;;;;;;;1.32;0.70;;;27.30;99.90;;;;;;1857706;77;21112;-72
2022/07/13 10:29:26;;;;;;;2.25;0.80;;;27.30;99.90;;;;;;1866725;76;21731;-73
2022/07/13 10:31:59;;;;;;;1.57;0.70;;;27.30;99.90;;;;;;1879089;76;21195;-74
2022/07/13 10:34:32;;;;;;;3.37;0.70;;;27.20;99.90;;;;;;1880410;76;21093;-72
2022/07/13 10:37:04;;;;;;;1.75;0.75;;;27.20;99.90;;;;;;1830606;78;21214;-73
2022/07/13 10:39:35;;;;;;;2.15;0.80;;;27.20;99.90;;;;;;1877892;75;21091;-71
2022/07/13 10:42:08;;;;;;;2.85;0.80;;;27.10;99.90;;;;;;1829421;77;21637;-71
2022/07/13 10:44:45;;;;;;;1.75;0.80;;;27.10;99.90;;;;;;1877878;76;21131;-81
2022/07/13 10:47:20;;;;;;;2.72;0.80;;;27.10;99.90;;;;;;1883109;75;21215;-81
2022/07/13 10:49:52;;;;;;;3.25;1.27;;;27.10;99.90;;;;;;1852732;77;21135;-82
2022/07/13 10:52:26;;;;;;;1.47;0.70;;;27.10;99.90;;;;;;1908673;74;21177;-82
2022/07/13 10:55:11;;;;;;;3.85;0.80;;;27.10;99.90;;;;;;1917200;74;21189;-82
2022/07/13 10:57:37;;;;;;;3.15;0.55;;;27.00;99.90;;;;;;1927399;73;21048;-81
2022/07/13 11:00:29;;;;;;;1.85;0.85;;;27.00;99.90;;;;;;1926192;73;21091;-81
2022/07/13 11:03:03;;;;;;;2.58;0.88;;;27.00;99.90;;;;;;1857901;76;21183;-81
2022/07/13 11:05:36;;;;;;;4.20;1.25;;;27.00;99.90;;;;;;1844817;77;21477;-81
2022/07/13 11:08:13;;;;;;;4.05;1.10;;;27.00;99.90;;;;;;1854843;76;21079;-80
2022/07/13 11:10:46;;;;;;;1.50;0.88;;;26.90;99.90;;;;;;1847650;76;21209;-81
2022/07/13 11:13:28;;;;;;;2.12;1.05;;;26.90;99.90;;;;;;1927962;74;21126;-82
2022/07/13 11:16:03;;;;;;;2.52;1.30;;;26.90;99.90;;;;;;1931187;73;21150;-81
2022/07/13 11:18:38;;;;;;;3.10;0.88;;;26.90;99.90;;;;;;1930759;73;21158;-82
2022/07/13 11:21:29;;;;;;;2.45;1.07;;;26.90;99.90;;;;;;1925693;74;21119;-81
2022/07/13 11:26:38;;;;;;;3.27;1.07;;;26.80;99.90;;;;;;1845096;76;21179;-83
2022/07/13 11:29:10;;;;;;;4.37;1.05;;;26.80;99.90;;;;;;1836752;77;21244;-84
2022/07/13 11:31:42;;;;;;;2.30;1.07;;;26.80;99.90;;;;;;1884600;76;21051;-82
2022/07/13 11:34:13;;;;;;;4.05;1.10;;;26.80;99.90;;;;;;1871095;74;21099;-82
2022/07/13 11:36:44;;;;;;;3.72;1.00;;;26.80;99.90;;;;;;1845471;77;21246;-81
2022/07/13 11:39:18;;;;;;;3.50;1.37;;;26.80;99.90;;;;;;1856080;77;21082;-83
2022/07/13 11:41:53;;;;;;;7.55;4.15;;;26.80;99.90;;;;;;1865650;75;21123;-82
2022/07/13 11:44:26;;;;;;;5.20;1.85;;;26.80;99.90;;;;;;1885679;76;21135;-79
2022/07/13 11:46:59;;;;;;;3.72;1.87;;;26.80;99.90;;;;;;1837374;77;21135;-79
2022/07/13 11:49:31;;;;;;;2.70;1.60;;;26.80;99.90;;;;;;1927001;74;21558;-79
2022/07/13 11:52:02;;;;;;;8.50;3.87;;;26.80;99.90;;;;;;1927299;74;21115;-78
2022/07/13 11:54:33;;;;;;;10.13;4.22;;;26.80;99.90;;;;;;1926194;73;21073;-79
2022/07/13 11:57:05;;;;;;;8.18;2.70;;;26.80;99.90;;;;;;1926585;73;21110;-79
2022/07/13 11:59:39;;;;;;;6.60;2.50;;;26.80;99.90;;;;;;1925025;74;21181;-80
2022/07/13 12:02:11;;;;;;;5.37;2.10;;;26.70;99.90;;;;;;1921602;74;21123;-80
2022/07/13 12:04:45;;;;;;;7.55;2.72;;;26.70;99.90;;;;;;1912853;73;21087;-80
2022/07/13 12:07:19;;;;;;;3.40;1.60;;;26.70;99.90;;;;;;1917955;74;22266;-80
2022/07/13 12:09:52;;;;;;;5.80;2.60;;;26.60;99.90;;;;;;1924400;74;21107;-80
2022/07/13 12:12:26;;;;;;;9.00;3.05;;;26.50;99.90;;;;;;1918095;74;21184;-79
2022/07/13 12:14:58;;;;;;;8.15;3.42;;;26.50;99.90;;;;;;1921891;74;21111;-81
2022/07/13 12:17:31;;;;;;;9.08;3.95;;;26.50;99.90;;;;;;1926058;74;21079;-79
2022/07/13 12:20:06;;;;;;;6.53;3.22;;;26.50;99.90;;;;;;1906974;74;21198;-79
2022/07/13 12:22:38;;;;;;;6.20;2.60;;;26.40;99.90;;;;;;1900269;74;21661;-79
2022/07/13 12:25:09;;;;;;;6.97;2.50;;;26.40;99.90;;;;;;1905751;74;21119;-79
2022/07/13 12:27:40;;;;;;;6.53;2.33;;;26.40;99.90;;;;;;1914187;74;21107;-79
2022/07/13 12:30:12;;;;;;;2.80;1.70;;;26.40;99.90;;;;;;1923104;74;21151;-79
2022/07/13 12:32:46;;;;;;;4.20;1.70;;;26.40;99.90;;;;;;1837877;78;21171;-78
2022/07/13 12:35:18;;;;;;;3.65;1.92;;;26.40;99.90;;;;;;1922522;74;21217;-79
2022/07/13 12:37:54;;;;;;;4.47;2.00;;;26.30;99.90;;;;;;1927696;74;21073;-79
2022/07/13 12:40:26;;;;;;;4.90;1.72;;;26.30;99.90;;;;;;1928112;74;21176;-80
2022/07/13 12:42:58;;;;;;;5.55;1.57;;;26.30;99.90;;;;;;1907505;74;21637;-79
2022/07/13 12:45:31;;;;;;;3.25;1.55;;;26.30;99.90;;;;;;1927240;74;21186;-80
2022/07/13 12:48:06;;;;;;;3.17;1.80;;;26.30;99.90;;;;;;1924364;74;21702;-79
2022/07/13 12:50:38;;;;;;;3.47;1.50;;;26.30;99.90;;;;;;1869905;76;21110;-79
2022/07/13 12:53:09;;;;;;;4.28;1.75;;;26.30;99.90;;;;;;1910444;75;21225;-79
2022/07/13 12:55:43;;;;;;;3.35;1.75;;;26.30;99.90;;;;;;1881209;75;21649;-79
2022/07/13 12:58:14;;;;;;;5.08;1.77;;;26.30;99.90;;;;;;1875191;76;21780;-80
2022/07/13 13:00:44;;;;;;;3.52;1.90;;;26.20;99.90;;;;;;1898164;74;21133;-81
2022/07/13 13:03:17;;;;;;;4.80;1.77;;;26.30;99.90;;;;;;1847087;76;21080;-80
2022/07/13 13:05:48;;;;;;;3.90;1.50;;;26.30;99.90;;;;;;1879176;76;21166;-80
2022/07/13 13:08:19;;;;;;;3.70;2.20;;;26.20;99.90;;;;;;1881718;75;21124;-80
2022/07/13 13:10:50;;;;;;;5.05;1.60;;;26.20;99.90;;;;;;1911485;75;21617;-81
2022/07/13 13:13:20;;;;;;;4.12;2.00;;;26.20;99.90;;;;;;1891032;75;21127;-79
2022/07/13 13:15:52;;;;;;;4.00;1.70;;;26.10;99.90;;;;;;1815214;79;21161;-79
2022/07/13 13:18:34;;;;;;;4.60;2.08;;;26.10;99.90;;;;;;1912503;75;21080;-80
2022/07/13 13:21:11;;;;;;;3.62;2.02;;;26.00;99.90;;;;;;1861410;76;21092;-80
2022/07/13 13:23:43;;;;;;;4.28;1.70;;;26.00;99.90;;;;;;1842276;78;21173;-79